Time;durP1;ratioP1;P1;durP2;ratioP2;P2;SDS_P1;SDS_P2;PMS_P1;PMS_P2;Temp;Humidity;BMP_temperature;BMP_pressure;BME280_temperature;BME280_humidity;BME280_pressure;Samples;Min_cycle;Max_cycle;Signal;HPM_P1;HPM_P2
2022/08/05 00:02:32;;;;;;;33.60;21.93;;;;;;;19.50;100.00;99801.38;1739818;82;21307;-80
2022/08/05 00:05:42;;;;;;;29.18;22.77;;;;;;;19.53;100.00;99804.52;1706005;84;21157;-80
2022/08/05 00:08:48;;;;;;;34.08;23.42;;;;;;;19.53;100.00;99811.45;1740155;82;21758;-80
2022/08/05 00:11:55;;;;;;;33.10;23.25;;;;;;;19.54;100.00;99806.73;1705750;84;21169;-80
2022/08/05 00:15:02;;;;;;;29.23;21.02;;;;;;;19.53;100.00;99805.06;1741637;82;21142;-80
2022/08/05 00:18:10;;;;;;;27.37;21.30;;;;;;;19.53;100.00;99803.13;1741277;82;21244;-80
2022/08/05 00:21:18;;;;;;;36.10;26.37;;;;;;;19.50;100.00;99804.16;1705913;84;21204;-80
2022/08/05 00:24:25;;;;;;;36.73;27.22;;;;;;;19.53;100.00;99800.91;1741489;82;21169;-80
2022/08/05 00:27:31;;;;;;;30.60;23.40;;;;;;;19.52;100.00;99798.64;1705240;84;21165;-80
2022/08/05 00:30:38;;;;;;;28.42;20.95;;;;;;;19.52;100.00;99798.64;1741496;82;21142;-80
2022/08/05 00:33:46;;;;;;;30.77;23.95;;;;;;;19.55;100.00;99794.00;1680109;85;21848;-80
2022/08/05 00:36:52;;;;;;;29.45;23.65;;;;;;;19.66;100.00;99797.28;1680538;85;21197;-80
2022/08/05 00:39:59;;;;;;;32.85;24.00;;;;;;;19.52;100.00;99798.64;1656043;86;21840;-81
2022/08/05 00:43:08;;;;;;;31.45;22.80;;;;;;;19.41;100.00;99798.99;1680137;85;21241;-81
2022/08/05 00:46:13;;;;;;;32.93;21.97;;;;;;;19.38;100.00;99798.64;1679998;85;21189;-80
2022/08/05 00:49:20;;;;;;;36.35;21.05;;;;;;;19.32;100.00;99803.24;1654977;86;21196;-79
2022/08/05 00:52:27;;;;;;;28.73;20.95;;;;;;;19.27;100.00;99803.69;1680950;85;21221;-80
2022/08/05 00:55:34;;;;;;;32.33;22.87;;;;;;;19.24;100.00;99809.71;1681256;85;21185;-80
2022/08/05 00:58:41;;;;;;;35.00;24.15;;;;;;;19.25;100.00;99798.95;1680931;85;21185;-80
2022/08/05 01:01:48;;;;;;;36.00;23.22;;;;;;;19.27;100.00;99801.75;1681251;85;21161;-79
2022/08/05 01:04:54;;;;;;;29.18;22.25;;;;;;;19.30;100.00;99796.28;1681203;85;21165;-80
2022/08/05 01:08:02;;;;;;;29.45;23.32;;;;;;;19.35;100.00;99804.15;1651577;87;21766;-80
2022/08/05 01:11:29;;;;;;;37.28;26.35;;;;;;;19.32;100.00;99798.24;1680987;85;21178;-80
2022/08/05 01:14:48;;;;;;;29.30;22.20;;;;;;;19.30;100.00;99800.44;1651192;87;21210;-80
2022/08/05 01:18:02;;;;;;;34.45;25.40;;;;;;;19.30;100.00;99812.91;1680838;85;21817;-80
2022/08/05 01:21:36;;;;;;;32.13;22.45;;;;;;;19.26;100.00;99813.94;1656864;86;21182;-80
2022/08/05 01:25:04;;;;;;;32.88;23.77;;;;;;;19.28;100.00;99816.45;1679921;85;21730;-79
2022/08/05 01:28:43;;;;;;;30.40;23.07;;;;;;;19.27;100.00;99818.39;1680749;85;21217;-80
2022/08/05 01:31:56;;;;;;;36.05;24.10;;;;;;;19.25;100.00;99821.97;1653964;85;21234;-79
2022/08/05 01:35:05;;;;;;;30.92;23.00;;;;;;;19.27;100.00;99825.32;1697735;84;21284;-80
2022/08/05 01:38:11;;;;;;;32.13;22.77;;;;;;;19.27;100.00;99825.87;1705044;84;22221;-79
2022/08/05 01:41:20;;;;;;;27.40;22.15;;;;;;;19.29;100.00;99818.13;1705648;84;21174;-80
2022/08/05 01:44:25;;;;;;;32.67;22.40;;;;;;;19.23;100.00;99826.05;1705470;84;21824;-80
2022/08/05 01:47:33;;;;;;;30.60;23.50;;;;;;;19.29;100.00;99823.16;1705197;84;21196;-80
2022/08/05 01:50:45;;;;;;;26.35;21.17;;;;;;;19.28;100.00;99835.86;1705596;84;21233;-80
2022/08/05 01:53:52;;;;;;;30.20;21.77;;;;;;;19.17;100.00;99838.13;1704446;84;21221;-80
2022/08/05 01:56:59;;;;;;;25.95;21.62;;;;;;;19.20;100.00;99839.04;1704242;84;21199;-80
2022/08/05 02:00:12;;;;;;;25.97;20.92;;;;;;;19.13;100.00;99829.45;1703727;84;21209;-80
2022/08/05 02:03:43;;;;;;;25.27;20.23;;;;;;;19.12;100.00;99834.70;1705729;84;21570;-80
2022/08/05 02:06:49;;;;;;;25.92;19.60;;;;;;;19.25;100.00;99832.22;1705599;84;21178;-80
2022/08/05 02:09:55;;;;;;;33.20;22.55;;;;;;;19.15;100.00;99836.45;1705451;84;21284;-80
2022/08/05 02:13:05;;;;;;;27.13;19.90;;;;;;;19.14;100.00;99827.81;1704990;84;21225;-80
2022/08/05 02:16:18;;;;;;;27.37;20.75;;;;;;;19.09;100.00;99830.48;1705583;84;21643;-80
2022/08/05 02:19:35;;;;;;;34.58;20.77;;;;;;;19.08;100.00;99826.02;1704774;84;21190;-80
2022/08/05 02:22:49;;;;;;;32.03;20.40;;;;;;;19.17;100.00;99824.27;1705575;84;21208;-80
2022/08/05 02:25:51;;;;;;;28.45;20.48;;;;;;;19.27;100.00;99830.87;1705826;84;21173;-80
2022/08/05 02:28:59;;;;;;;29.12;21.60;;;;;;;19.15;100.00;99830.91;1705588;84;21201;-80
2022/08/05 02:32:07;;;;;;;25.70;20.85;;;;;;;19.18;100.00;99832.87;1703378;84;21237;-80
2022/08/05 02:35:17;;;;;;;26.93;20.92;;;;;;;19.22;100.00;99832.70;1698597;84;21213;-80
2022/08/05 02:38:24;;;;;;;24.98;20.02;;;;;;;19.23;100.00;99821.34;1704964;84;21782;-80
2022/08/05 02:41:32;;;;;;;26.48;21.62;;;;;;;19.30;100.00;99830.94;1706008;84;21177;-80
2022/08/05 02:44:39;;;;;;;29.25;20.95;;;;;;;19.28;100.00;99820.06;1704935;84;21766;-80
2022/08/05 02:47:46;;;;;;;27.70;20.25;;;;;;;19.26;100.00;99822.80;1705905;84;21209;-79
2022/08/05 02:50:54;;;;;;;28.62;20.90;;;;;;;19.31;100.00;99824.30;1705161;84;21757;-80
2022/08/05 02:54:00;;;;;;;28.00;21.62;;;;;;;19.38;100.00;99829.14;1705829;84;21149;-80
2022/08/05 02:57:06;;;;;;;29.63;21.23;;;;;;;19.37;100.00;99832.46;1705744;84;21213;-80
2022/08/05 03:00:14;;;;;;;24.10;19.65;;;;;;;19.43;100.00;99833.95;1704342;84;21595;-80
2022/08/05 03:03:27;;;;;;;32.10;22.52;;;;;;;19.52;100.00;99840.80;1706049;84;21225;-79
2022/08/05 03:06:34;;;;;;;29.15;21.77;;;;;;;19.58;100.00;99841.22;1703730;84;21177;-80
2022/08/05 03:09:41;;;;;;;24.98;20.52;;;;;;;19.73;100.00;99844.87;1705111;84;21185;-80
2022/08/05 03:12:50;;;;;;;23.32;18.80;;;;;;;20.01;100.00;99846.24;1705447;84;21201;-80
2022/08/05 03:15:58;;;;;;;28.52;19.90;;;;;;;20.13;100.00;99848.94;1704859;84;21828;-80
2022/08/05 03:19:08;;;;;;;27.52;20.15;;;;;;;20.24;100.00;99841.66;1706042;84;21181;-80
2022/08/05 03:22:14;;;;;;;25.10;19.73;;;;;;;20.26;100.00;99844.45;1705085;84;21229;-80
2022/08/05 03:25:22;;;;;;;27.22;20.48;;;;;;;20.32;100.00;99843.44;1705357;84;21245;-80
2022/08/05 03:28:29;;;;;;;26.97;20.37;;;;;;;20.34;100.00;99842.66;1703966;84;21212;-80
2022/08/05 03:31:35;;;;;;;25.35;20.20;;;;;;;20.40;100.00;99840.80;1705836;84;21213;-80
2022/08/05 03:34:42;;;;;;;28.20;18.98;;;;;;;20.42;100.00;99838.64;1705154;84;21181;-80
2022/08/05 03:37:49;;;;;;;23.27;19.23;;;;;;;20.50;100.00;99833.22;1704533;84;21193;-80
2022/08/05 03:40:55;;;;;;;25.08;19.32;;;;;;;20.57;100.00;99826.96;1705952;84;21177;-80
2022/08/05 03:44:02;;;;;;;23.62;20.02;;;;;;;20.57;100.00;99831.13;1706013;84;21714;-81
2022/08/05 03:47:09;;;;;;;25.60;21.50;;;;;;;20.63;100.00;99828.72;1705861;84;21213;-80
2022/08/05 03:50:16;;;;;;;23.62;20.82;;;;;;;20.68;100.00;99827.40;1705977;84;21134;-80
2022/08/05 03:53:30;;;;;;;21.02;18.45;;;;;;;20.70;100.00;99830.75;1705007;84;21750;-80
2022/08/05 03:56:46;;;;;;;26.00;19.73;;;;;;;20.87;100.00;99832.13;1704243;84;21245;-79
2022/08/05 04:00:02;;;;;;;26.33;20.37;;;;;;;21.04;100.00;99823.22;1705996;84;21233;-80
2022/08/05 04:03:09;;;;;;;28.52;20.12;;;;;;;21.26;100.00;99823.77;1704651;84;21276;-80
2022/08/05 04:06:18;;;;;;;22.80;18.62;;;;;;;21.53;100.00;99824.70;1705723;84;21694;-80
2022/08/05 04:09:24;;;;;;;21.27;17.45;;;;;;;21.84;100.00;99827.29;1706131;84;21509;-80
2022/08/05 04:12:33;;;;;;;32.20;17.60;;;;;;;22.11;100.00;99821.75;1705572;84;21816;-80
2022/08/05 04:15:37;;;;;;;20.75;17.12;;;;;;;22.32;100.00;99824.71;1704708;84;21213;-80
2022/08/05 04:18:46;;;;;;;19.70;16.15;;;;;;;22.59;100.00;99816.30;1704077;84;21204;-79
2022/08/05 04:21:53;;;;;;;20.92;16.57;;;;;;;22.84;100.00;99810.05;1706064;84;21228;-80
2022/08/05 04:25:00;;;;;;;19.00;16.97;;;;;;;23.07;100.00;99802.69;1706046;84;21205;-80
2022/08/05 04:28:07;;;;;;;18.92;13.83;;;;;;;23.31;100.00;99812.84;1705290;84;21777;-80
2022/08/05 04:31:14;;;;;;;17.20;14.85;;;;;;;23.58;100.00;99804.30;1705498;84;21757;-81
2022/08/05 04:34:14;;;;;;;17.70;15.45;;;;;;;23.78;100.00;99808.30;1706005;84;21178;-81
2022/08/05 04:37:14;;;;;;;18.00;15.10;;;;;;;24.02;98.48;99805.83;1703979;84;21213;-81
2022/08/05 04:40:22;;;;;;;22.55;17.65;;;;;;;24.13;97.26;99809.73;1705361;84;21153;-81
2022/08/05 04:43:20;;;;;;;;;;;;;;;24.27;96.04;99796.61;1707706;84;21205;-79
2022/08/05 04:46:26;;;;;;;18.73;13.65;;;;;;;24.47;95.63;99798.06;1705526;84;20232;-79
2022/08/05 04:49:31;;;;;;;17.32;14.73;;;;;;;24.58;90.76;99792.73;1705779;84;21174;-79
2022/08/05 04:52:37;;;;;;;17.15;15.35;;;;;;;24.56;90.59;99788.52;1704564;84;21761;-80
2022/08/05 04:55:44;;;;;;;16.60;13.05;;;;;;;24.63;89.15;99789.92;1706188;84;21785;-81
2022/08/05 04:58:51;;;;;;;16.40;13.80;;;;;;;24.63;88.00;99787.13;1704058;84;21221;-80
2022/08/05 05:01:59;;;;;;;13.28;11.88;;;;;;;24.64;87.56;99791.59;1704729;84;21197;-81
2022/08/05 05:05:05;;;;;;;16.10;12.15;;;;;;;24.66;86.66;99786.58;1704936;84;21221;-80
2022/08/05 05:08:16;;;;;;;15.15;10.63;;;;;;;24.80;86.39;99795.79;1704276;84;21415;-80
2022/08/05 05:11:22;;;;;;;13.60;10.72;;;;;;;24.88;84.62;99800.78;1706137;84;21233;-81
2022/08/05 05:14:29;;;;;;;13.85;11.08;;;;;;;24.90;83.85;99800.80;1705201;84;21217;-81
2022/08/05 05:17:38;;;;;;;21.77;12.43;;;;;;;24.97;83.62;99808.88;1705181;84;21177;-81
2022/08/05 05:20:46;;;;;;;15.75;12.05;;;;;;;25.03;84.63;99811.96;1684520;84;21716;-79
2022/08/05 05:23:52;;;;;;;11.80;10.43;;;;;;;25.09;82.69;99811.41;1704800;84;21245;-80
2022/08/05 05:27:00;;;;;;;14.80;11.08;;;;;;;25.05;82.17;99814.46;1705320;84;21196;-81
2022/08/05 05:30:05;;;;;;;15.53;11.05;;;;;;;25.02;83.20;99811.66;1706046;84;21157;-81
2022/08/05 05:33:13;;;;;;;14.70;10.18;;;;;;;25.11;81.67;99816.98;1703784;84;21225;-80
2022/08/05 05:36:21;;;;;;;16.25;9.40;;;;;;;25.22;81.36;99814.45;1705985;84;21181;-81
2022/08/05 05:39:28;;;;;;;15.35;10.70;;;;;;;25.36;80.23;99822.20;1698342;84;21577;-81
2022/08/05 05:42:34;;;;;;;9.83;8.05;;;;;;;25.43;79.60;99827.79;1741024;82;21201;-81
2022/08/05 05:45:35;;;;;;;22.90;10.10;;;;;;;25.58;79.11;99821.84;1741106;82;21169;-81
2022/08/05 05:48:42;;;;;;;57.35;17.92;;;;;;;25.71;78.27;99827.66;1704353;84;21192;-81
2022/08/05 05:51:48;;;;;;;13.32;10.72;;;;;;;25.85;78.05;99825.09;1741277;82;21161;-81
2022/08/05 05:54:55;;;;;;;12.65;7.35;;;;;;;26.00;77.17;99839.00;1705946;84;21157;-81
2022/08/05 05:58:03;;;;;;;8.55;7.60;;;;;;;26.05;76.93;99836.73;1740616;82;21723;-81
2022/08/05 06:01:02;;;;;;;12.88;7.08;;;;;;;25.97;76.24;99838.20;1740986;82;21217;-81
2022/08/05 06:03:57;;;;;;;11.40;7.60;;;;;;;25.76;76.74;99835.80;1740832;82;21559;-81
2022/08/05 06:06:45;;;;;;;9.23;7.58;;;;;;;25.67;78.17;99846.16;1741062;82;21244;-81
2022/08/05 06:09:38;;;;;;;18.57;8.95;;;;;;;25.68;79.12;99847.83;1739470;82;21157;-81
2022/08/05 06:12:48;;;;;;;14.18;8.83;;;;;;;25.71;79.22;99853.44;1740167;82;21200;-81
2022/08/05 06:15:54;;;;;;;9.53;7.60;;;;;;;25.72;78.41;99855.94;1741409;82;21197;-81
2022/08/05 06:19:02;;;;;;;11.48;7.60;;;;;;;25.57;79.93;99856.02;1740025;82;21252;-81
2022/08/05 06:22:10;;;;;;;8.93;8.00;;;;;;;25.60;79.79;99862.45;1741386;82;21635;-82
2022/08/05 06:25:17;;;;;;;11.33;8.83;;;;;;;25.77;79.15;99862.67;1741670;82;21200;-81
2022/08/05 06:28:24;;;;;;;11.90;9.93;;;;;;;25.99;79.09;99864.52;1739818;82;21177;-82
2022/08/05 06:31:30;;;;;;;17.23;10.38;;;;;;;26.24;77.74;99872.75;1741625;82;21738;-81
2022/08/05 06:34:38;;;;;;;15.60;8.70;;;;;;;26.21;77.24;99878.13;1705849;84;21231;-81
2022/08/05 06:37:45;;;;;;;10.48;8.93;;;;;;;26.20;77.33;99877.27;1741088;82;21832;-82
2022/08/05 06:40:53;;;;;;;12.78;9.33;;;;;;;26.14;77.33;99881.23;1740589;82;21249;-82
2022/08/05 06:44:00;;;;;;;8.80;7.80;;;;;;;26.03;77.83;99883.00;1741645;82;21149;-81
2022/08/05 06:47:06;;;;;;;9.53;7.80;;;;;;;25.90;78.32;99883.89;1741593;82;21181;-81
2022/08/05 06:50:14;;;;;;;12.13;7.42;;;;;;;25.79;78.32;99882.28;1741316;82;21201;-81
2022/08/05 06:53:20;;;;;;;12.55;7.15;;;;;;;25.69;79.51;99883.14;1744879;81;21226;-83
2022/08/05 06:56:28;;;;;;;10.72;7.47;;;;;;;25.57;80.07;99881.22;1741697;82;21179;-82
2022/08/05 06:59:34;;;;;;;7.25;5.15;;;;;;;25.65;80.78;99882.59;1740320;82;21192;-82
2022/08/05 07:02:49;;;;;;;6.53;5.33;;;;;;;25.89;79.52;99887.83;1740915;82;21206;-81
2022/08/05 07:05:55;;;;;;;10.00;6.25;;;;;;;26.06;80.23;99888.01;1741772;82;21230;-81
2022/08/05 07:09:02;;;;;;;7.33;6.53;;;;;;;26.37;78.70;99885.86;1744396;81;21177;-80
2022/08/05 07:12:02;;;;;;;10.03;7.35;;;;;;;26.59;76.92;99886.86;1698493;84;21240;-81
2022/08/05 07:18:34;;;;;;;11.12;8.05;;;;;;;26.67;74.89;99896.86;1770628;81;21770;-79
2022/08/05 07:21:41;;;;;;;8.60;7.58;;;;;;;26.73;75.64;99888.70;1771900;81;22074;-79
2022/08/05 07:24:48;;;;;;;19.70;11.03;;;;;;;26.90;75.28;99896.67;1771794;81;21137;-79
2022/08/05 07:27:55;;;;;;;19.75;11.43;;;;;;;27.08;74.38;99894.27;1740228;82;21189;-80
2022/08/05 07:31:01;;;;;;;14.75;10.55;;;;;;;27.16;73.54;99887.48;1741614;82;21161;-79
2022/08/05 07:34:09;;;;;;;12.03;9.85;;;;;;;27.37;72.41;99894.27;1741042;82;21177;-79
2022/08/05 07:37:16;;;;;;;14.53;9.88;;;;;;;27.54;71.87;99900.27;1741153;82;21193;-79
2022/08/05 07:40:24;;;;;;;16.85;10.75;;;;;;;27.64;72.27;99893.69;1751233;81;21189;-79
2022/08/05 07:43:31;;;;;;;15.28;12.05;;;;;;;27.75;70.29;99901.70;1765080;81;21250;-79
2022/08/05 07:46:37;;;;;;;13.78;12.15;;;;;;;27.52;70.21;99899.70;1766789;81;21134;-79
2022/08/05 07:49:45;;;;;;;14.85;11.03;;;;;;;27.52;70.21;99899.70;1746064;81;21177;-79
2022/08/05 07:52:53;;;;;;;14.17;10.50;;;;;;;27.39;71.52;99897.63;1762796;81;21193;-79
2022/08/05 07:55:59;;;;;;;21.15;12.30;;;;;;;27.26;72.19;99890.17;1762149;81;21236;-80
2022/08/05 07:59:07;;;;;;;21.15;15.28;;;;;;;27.46;74.56;99886.87;1771824;81;21154;-80
2022/08/05 08:02:12;;;;;;;21.60;11.10;;;;;;;27.73;71.63;99889.94;1761075;80;21224;-80
2022/08/05 08:05:18;;;;;;;15.48;9.78;;;;;;;27.95;69.02;99892.20;1771273;81;21166;-80
2022/08/05 08:08:24;;;;;;;9.08;5.83;;;;;;;27.99;68.64;99901.66;1763831;81;21228;-80
2022/08/05 08:11:28;;;;;;;7.75;5.15;;;;;;;27.99;65.77;99895.21;1728510;82;21164;-80
2022/08/05 08:14:36;;;;;;;8.70;6.40;;;;;;;28.00;64.67;99891.29;1764731;80;21162;-80
2022/08/05 08:17:42;;;;;;;9.43;6.67;;;;;;;27.88;63.62;99891.71;1711655;82;21796;-79
2022/08/05 08:20:50;;;;;;;8.73;6.05;;;;;;;27.75;64.57;99897.48;1740393;82;21204;-79
2022/08/05 08:23:57;;;;;;;6.33;5.53;;;;;;;27.69;64.17;99888.83;1705995;84;21177;-80
2022/08/05 08:27:05;;;;;;;7.30;5.45;;;;;;;27.67;63.66;99882.69;1766386;81;21225;-80
2022/08/05 08:30:11;;;;;;;9.10;5.35;;;;;;;27.71;66.06;99886.61;1771056;81;21201;-79
2022/08/05 08:33:19;;;;;;;8.58;5.20;;;;;;;27.86;65.67;99880.52;1770582;81;21757;-81
2022/08/05 08:36:26;;;;;;;8.25;5.37;;;;;;;28.00;64.88;99877.23;1770649;81;21201;-79
2022/08/05 08:39:34;;;;;;;6.10;4.97;;;;;;;27.98;65.25;99878.09;1745073;81;21177;-79
2022/08/05 08:42:41;;;;;;;6.17;5.58;;;;;;;27.88;65.34;99878.23;1711603;82;21184;-80
2022/08/05 08:45:48;;;;;;;9.58;5.67;;;;;;;27.95;66.46;99871.69;1705909;83;21182;-80
2022/08/05 08:48:53;;;;;;;8.78;5.42;;;;;;;28.03;66.84;99874.62;1700623;83;21269;-79
2022/08/05 08:52:11;;;;;;;9.73;6.33;;;;;;;28.08;65.19;99871.48;1704385;83;21217;-80
2022/08/05 08:55:16;;;;;;;9.20;5.05;;;;;;;27.97;66.75;99869.40;1684397;85;21179;-79
2022/08/05 08:58:23;;;;;;;8.30;5.22;;;;;;;28.22;67.64;99877.45;1704481;83;21232;-80
2022/08/05 09:01:29;;;;;;;9.33;5.70;;;;;;;28.46;65.86;99869.53;1725367;83;21174;-79
2022/08/05 09:04:29;;;;;;;7.22;5.15;;;;;;;28.62;63.73;99862.52;1733885;83;21163;-80
2022/08/05 09:07:35;;;;;;;10.65;5.92;;;;;;;28.73;63.56;99872.45;1715453;83;21243;-80
2022/08/05 09:10:43;;;;;;;10.18;5.72;;;;;;;28.71;62.92;99862.66;1726780;83;21511;-80
2022/08/05 09:13:51;;;;;;;7.83;5.90;;;;;;;28.74;63.76;99865.67;1726152;83;21212;-79
2022/08/05 09:16:58;;;;;;;8.28;5.97;;;;;;;28.90;63.27;99855.00;1704558;83;21209;-79
2022/08/05 09:20:05;;;;;;;6.37;5.42;;;;;;;29.05;63.26;99857.30;1705220;84;21783;-79
2022/08/05 09:23:21;;;;;;;7.87;5.62;;;;;;;29.29;59.53;99853.16;1703971;83;21790;-80
2022/08/05 09:26:28;;;;;;;8.93;5.72;;;;;;;29.29;59.53;99853.16;1706858;83;21647;-80
2022/08/05 09:29:48;;;;;;;9.35;6.87;;;;;;;29.13;57.80;99848.98;1724306;83;21169;-79
2022/08/05 09:32:55;;;;;;;10.40;6.40;;;;;;;29.14;62.00;99845.02;1710350;83;21185;-79
2022/08/05 09:36:10;;;;;;;10.55;6.33;;;;;;;29.14;62.00;99845.02;1705281;84;21265;-79
2022/08/05 09:39:19;;;;;;;10.25;6.15;;;;;;;29.23;61.55;99845.13;1704270;84;21798;-80
2022/08/05 09:42:29;;;;;;;8.13;6.12;;;;;;;29.31;61.60;99843.55;1732326;83;21201;-80
2022/08/05 09:45:43;;;;;;;8.73;6.35;;;;;;;29.34;60.19;99847.99;1719443;83;21150;-80
2022/08/05 09:48:52;;;;;;;10.32;5.67;;;;;;;29.29;59.63;99843.30;1704800;83;21196;-80
2022/08/05 09:51:59;;;;;;;9.30;5.47;;;;;;;29.32;58.80;99848.89;1712699;83;21303;-80
2022/08/05 09:55:17;;;;;;;8.43;6.15;;;;;;;29.24;59.74;99841.99;1710716;83;21166;-80
2022/08/05 09:58:24;;;;;;;6.87;5.92;;;;;;;29.39;59.62;99835.79;1723833;83;21205;-82
2022/08/05 10:01:32;;;;;;;6.50;5.80;;;;;;;29.61;57.18;99830.29;1701779;83;21152;-79
2022/08/05 10:04:47;;;;;;;15.13;6.12;;;;;;;29.61;56.81;99819.59;1748269;81;21746;-79
2022/08/05 10:08:05;;;;;;;9.80;5.87;;;;;;;29.61;56.62;99826.06;1755061;81;21258;-80
2022/08/05 10:11:20;;;;;;;8.18;6.78;;;;;;;29.35;57.77;99818.67;1719045;81;21784;-81
2022/08/05 10:14:34;;;;;;;9.35;6.12;;;;;;;29.30;59.25;99810.33;1758008;81;21221;-80
2022/08/05 10:17:42;;;;;;;8.40;6.10;;;;;;;29.38;57.99;99807.37;1754234;81;21154;-80
2022/08/05 10:20:56;;;;;;;9.05;6.03;;;;;;;29.41;57.09;99815.20;1769425;80;21165;-81
2022/08/05 10:24:04;;;;;;;8.03;6.03;;;;;;;29.39;56.90;99807.62;1771968;80;21746;-80
2022/08/05 10:27:12;;;;;;;8.85;5.47;;;;;;;29.60;56.18;99810.31;1760638;81;21154;-80
2022/08/05 10:30:18;;;;;;;7.12;5.40;;;;;;;29.71;56.15;99810.91;1741119;82;21177;-80
2022/08/05 10:33:27;;;;;;;6.30;5.42;;;;;;;30.10;54.65;99813.11;1713068;82;21809;-80
2022/08/05 10:36:33;;;;;;;6.42;5.70;;;;;;;30.36;54.14;99819.01;1708339;82;21971;-81
2022/08/05 10:39:42;;;;;;;9.43;6.30;;;;;;;30.56;54.82;99820.47;1752389;81;21147;-80
2022/08/05 10:42:48;;;;;;;9.93;6.15;;;;;;;30.80;53.64;99816.76;1748769;81;21743;-80
2022/08/05 10:46:06;;;;;;;6.92;5.30;;;;;;;30.76;52.82;99821.38;1688802;84;21153;-79
2022/08/05 10:49:13;;;;;;;17.45;6.22;;;;;;;30.60;52.87;99815.03;1704642;84;21169;-80
2022/08/05 10:52:20;;;;;;;8.60;5.90;;;;;;;30.32;53.37;99815.73;1714031;81;21200;-80
2022/08/05 10:55:29;;;;;;;8.40;6.03;;;;;;;30.24;53.07;99831.42;1672466;84;21208;-80
2022/08/05 10:58:37;;;;;;;8.35;6.30;;;;;;;30.10;53.61;99831.44;1704056;83;21212;-80
2022/08/05 11:01:47;;;;;;;10.43;6.28;;;;;;;30.02;55.29;99825.16;1705171;84;21737;-80
2022/08/05 11:04:55;;;;;;;7.65;5.78;;;;;;;30.01;55.91;99823.47;1774146;80;21193;-80
2022/08/05 11:08:10;;;;;;;10.23;6.17;;;;;;;30.26;55.48;99824.33;1771542;80;21185;-80
2022/08/05 11:11:43;;;;;;;8.65;6.15;;;;;;;30.30;54.40;99824.50;1769904;81;21169;-80
2022/08/05 11:14:52;;;;;;;11.05;6.15;;;;;;;30.28;55.16;99820.59;1756634;81;21150;-79
2022/08/05 11:18:23;;;;;;;9.05;6.45;;;;;;;30.45;54.54;99813.44;1758531;81;21546;-81
2022/08/05 11:21:38;;;;;;;13.62;5.85;;;;;;;30.47;54.56;99809.13;1705816;84;21208;-82
2022/08/05 11:24:45;;;;;;;11.08;6.87;;;;;;;30.72;52.43;99801.17;1763872;81;21216;-82
2022/08/05 11:27:58;;;;;;;11.68;7.35;;;;;;;30.75;52.30;99792.91;1712654;82;21212;-83
2022/08/05 11:31:09;;;;;;;8.93;7.03;;;;;;;30.69;53.21;99790.52;1742198;81;21143;-82
2022/08/05 11:34:16;;;;;;;11.60;6.65;;;;;;;30.72;52.55;99792.12;1752359;81;21154;-81
2022/08/05 11:37:43;;;;;;;11.20;6.35;;;;;;;30.70;52.52;99793.01;1731451;82;21176;-81
2022/08/05 11:41:09;;;;;;;10.45;6.70;;;;;;;30.61;53.60;99789.30;1752800;81;21201;-81
2022/08/05 11:44:19;;;;;;;12.33;6.55;;;;;;;30.61;52.99;99799.17;1772659;80;21773;-81
2022/08/05 11:47:30;;;;;;;9.33;5.83;;;;;;;30.51;52.51;99813.55;1717918;82;21216;-81
2022/08/05 11:50:31;;;;;;;13.38;6.65;;;;;;;30.26;53.93;99816.44;1702692;83;21168;-81
2022/08/05 11:53:37;;;;;;;65.22;8.65;;;;;;;30.11;54.70;99825.22;1700942;83;21184;-81
2022/08/05 11:56:59;;;;;;;52.35;8.20;;;;;;;29.78;55.29;99826.80;1721555;83;21795;-80
2022/08/05 12:00:05;;;;;;;22.75;7.65;;;;;;;29.45;59.25;99838.75;1719592;82;21228;-81
2022/08/05 12:03:26;;;;;;;15.85;6.92;;;;;;;29.09;63.18;99833.85;1742448;82;21192;-81
2022/08/05 12:06:33;;;;;;;12.65;5.62;;;;;;;28.68;64.08;99851.44;1714110;83;21164;-82
2022/08/05 12:09:46;;;;;;;22.42;7.15;;;;;;;28.14;62.80;99857.07;1716282;83;21200;-82
2022/08/05 12:12:52;;;;;;;14.63;7.20;;;;;;;27.76;64.75;99852.83;1716089;83;21255;-81
2022/08/05 12:15:57;;;;;;;13.35;7.40;;;;;;;27.41;65.60;99858.84;1716040;83;21168;-81
2022/08/05 12:19:03;;;;;;;12.68;6.25;;;;;;;27.01;66.71;99867.39;1716217;83;21188;-80
2022/08/05 12:22:12;;;;;;;19.12;6.08;;;;;;;26.77;69.04;99865.08;1716405;83;21183;-80
2022/08/05 12:25:19;;;;;;;12.37;6.33;;;;;;;26.22;70.83;99868.02;1717331;83;21184;-81
2022/08/05 12:28:44;;;;;;;11.75;6.45;;;;;;;25.69;72.83;99881.73;1687619;85;21725;-81
2022/08/05 12:31:56;;;;;;;10.75;6.70;;;;;;;25.20;75.92;99895.03;1688577;85;21737;-80
2022/08/05 12:35:03;;;;;;;19.52;7.28;;;;;;;24.96;78.32;99914.34;1688851;85;21195;-80
2022/08/05 12:38:10;;;;;;;12.82;6.92;;;;;;;24.83;80.17;99922.46;1715286;83;21843;-80
2022/08/05 12:41:18;;;;;;;15.58;7.25;;;;;;;24.33;81.00;99933.30;1697118;83;21173;-80
2022/08/05 12:44:25;;;;;;;9.83;6.95;;;;;;;23.94;82.80;99918.92;1678133;83;21255;-80
2022/08/05 12:47:37;;;;;;;13.45;7.70;;;;;;;23.69;81.73;99912.13;1687790;84;21194;-80
2022/08/05 12:50:45;;;;;;;13.68;7.80;;;;;;;23.57;83.06;99906.44;1717414;82;21240;-80
2022/08/05 12:53:53;;;;;;;11.48;7.90;;;;;;;23.56;84.50;99909.80;1718309;83;21220;-80
2022/08/05 12:57:07;;;;;;;16.65;7.15;;;;;;;23.51;85.01;99913.95;1691518;83;21184;-81
2022/08/05 13:00:17;;;;;;;14.13;7.28;;;;;;;23.71;82.97;99915.50;1732327;82;21161;-80
2022/08/05 13:03:25;;;;;;;13.25;7.22;;;;;;;23.83;81.67;99907.44;1741278;82;21852;-80
2022/08/05 13:06:25;;;;;;;9.63;6.80;;;;;;;24.06;80.93;99908.36;1741630;82;21160;-80
2022/08/05 13:09:30;;;;;;;7.37;6.60;;;;;;;24.38;80.21;99917.13;1742789;82;21212;-80
2022/08/05 13:12:34;;;;;;;8.80;6.40;;;;;;;24.37;79.68;99915.42;1720846;82;21192;-80
2022/08/05 13:15:42;;;;;;;6.78;6.05;;;;;;;24.45;77.36;99919.08;1742615;82;21110;-80
2022/08/05 13:19:01;;;;;;;6.20;5.60;;;;;;;24.49;77.51;99929.99;1741598;82;21255;-80
2022/08/05 13:22:06;;;;;;;5.65;5.00;;;;;;;24.41;76.35;99939.75;1742874;82;21228;-80
2022/08/05 13:25:18;;;;;;;9.48;4.70;;;;;;;24.47;75.41;99934.47;1741592;82;21252;-80
2022/08/05 13:28:25;;;;;;;7.40;4.30;;;;;;;24.56;73.83;99929.70;1742519;82;21204;-80
2022/08/05 13:31:32;;;;;;;5.92;4.20;;;;;;;24.52;72.45;99930.84;1743296;82;21149;-80
2022/08/05 13:34:39;;;;;;;6.28;4.50;;;;;;;24.51;72.90;99918.52;1741544;82;21180;-80
2022/08/05 13:37:38;;;;;;;4.40;4.00;;;;;;;24.50;72.21;99913.49;1701703;83;21192;-80
2022/08/05 13:40:46;;;;;;;4.10;3.60;;;;;;;24.50;71.67;99914.05;1687961;85;21223;-80
2022/08/05 13:43:53;;;;;;;4.78;3.87;;;;;;;24.62;70.67;99933.65;1697825;84;21227;-79
2022/08/05 13:46:59;;;;;;;14.98;3.87;;;;;;;24.67;70.49;99948.20;1694626;84;21749;-80
2022/08/05 13:50:06;;;;;;;8.10;4.40;;;;;;;24.68;70.64;99957.69;1679278;85;21793;-80
2022/08/05 13:53:13;;;;;;;4.62;4.08;;;;;;;24.69;70.29;99950.14;1678326;85;21509;-79
2022/08/05 13:56:19;;;;;;;4.30;2.62;;;;;;;24.68;67.68;99951.27;1677958;85;21247;-80
2022/08/05 13:59:27;;;;;;;3.22;2.42;;;;;;;24.39;67.65;99937.80;1678903;85;21764;-79
2022/08/05 14:02:33;;;;;;;4.17;1.87;;;;;;;24.08;69.73;99934.05;1678777;85;21757;-80
2022/08/05 14:05:39;;;;;;;3.65;1.60;;;;;;;23.73;68.52;99947.33;1679036;85;21713;-80
2022/08/05 14:08:45;;;;;;;3.50;2.47;;;;;;;23.37;68.34;99951.83;1677036;85;21251;-80
2022/08/05 14:11:52;;;;;;;4.22;3.45;;;;;;;23.01;73.61;99952.12;1677675;85;21875;-80
2022/08/05 14:14:59;;;;;;;14.33;3.70;;;;;;;22.88;78.39;99961.77;1677121;85;21328;-81
2022/08/05 14:18:06;;;;;;;8.18;3.67;;;;;;;22.73;83.56;99967.22;1673714;85;21249;-80
2022/08/05 14:21:14;;;;;;;4.28;3.65;;;;;;;22.45;85.38;99975.59;1700367;84;21160;-79
2022/08/05 14:24:21;;;;;;;6.78;3.85;;;;;;;22.37;84.30;99964.06;1689610;85;21172;-79
2022/08/05 14:27:29;;;;;;;7.12;3.35;;;;;;;22.16;84.32;99978.30;1698779;84;22133;-79
2022/08/05 14:30:35;;;;;;;6.67;3.80;;;;;;;22.09;86.46;99976.25;1689625;85;21241;-79
2022/08/05 14:33:43;;;;;;;8.10;3.62;;;;;;;22.07;87.86;99973.73;1698118;84;21220;-80
2022/08/05 14:36:51;;;;;;;8.88;4.05;;;;;;;22.06;89.40;99965.06;1689957;85;21200;-80